Port Sulphur, Louisiana
Current Conditions -  °F | °C
As of 7:45 AM on Wednesday 26 Nov 2014 (Local Time) from K1B7 Reporting Station
Clear Clear  
Wind Chill: 11°   Ceiling: Unl
Heat Index: 11°   Visibility: 10mi
Dew Point:   Wind: 3mph
Humidity: 58%   Direction: 20°NNE
Pressure: 30.27"   Gusts: NA
Location:  29.49°N, 89.71°W
Report Text: K1B7 261345Z 02003KT 10SM SKC 11/03 A3027
Loading
Personal Weather Stations






























Interactive Weather Map New forecast layout! Learn more

10-Day Weather Forecast

Advertisements
Track Severe Weather on mobile